createdAt,value
2023-03-27T00:00:18.992Z,1002.081654
2023-03-27T00:05:19.100Z,1002.217910
2023-03-27T00:10:19.292Z,1002.318211
2023-03-27T00:15:18.898Z,1002.413293
2023-03-27T00:20:18.812Z,1002.546949
2023-03-27T00:25:19.119Z,1002.631593
2023-03-27T00:30:18.802Z,1002.782896
2023-03-27T00:35:18.717Z,1002.965687
2023-03-27T00:40:18.860Z,1003.095160
2023-03-27T00:45:18.889Z,1003.281078
2023-03-27T00:50:18.742Z,1003.472262
2023-03-27T00:55:18.819Z,1003.598318
2023-03-27T01:00:18.726Z,1003.696775
2023-03-27T01:05:18.877Z,1003.848749
2023-03-27T01:10:18.726Z,1003.947938
2023-03-27T01:15:18.775Z,1003.993825
2023-03-27T01:20:18.829Z,1004.023716
2023-03-27T01:25:18.939Z,1004.101134
2023-03-27T01:30:18.699Z,1004.152409
2023-03-27T01:35:18.911Z,1004.263409
2023-03-27T01:40:18.683Z,1004.357916
2023-03-27T01:45:18.885Z,1004.437505
2023-03-27T01:50:18.710Z,1004.500886
2023-03-27T01:55:18.847Z,1004.592051
2023-03-27T02:00:19.730Z,1004.643599
2023-03-27T02:05:19.064Z,1004.707631
2023-03-27T02:10:18.899Z,1004.733897
2023-03-27T02:15:24.838Z,1004.808229
2023-03-27T02:20:18.752Z,1004.930597
2023-03-27T02:25:18.981Z,1005.033069
2023-03-27T02:30:19.284Z,1005.102805
2023-03-27T02:35:19.115Z,1005.151227
2023-03-27T02:40:18.678Z,1005.304022
2023-03-27T02:45:19.184Z,1005.408692
2023-03-27T02:50:19.040Z,1005.500747
2023-03-27T02:55:18.859Z,1005.637529
2023-03-27T03:00:18.642Z,1005.712130
2023-03-27T03:05:19.187Z,1005.734814
2023-03-27T03:10:18.736Z,1005.856030
2023-03-27T03:15:19.397Z,1005.975967
2023-03-27T03:20:18.824Z,1006.060087
2023-03-27T03:25:18.779Z,1006.174099
2023-03-27T03:30:18.693Z,1006.316161
2023-03-27T03:35:18.950Z,1006.432494
2023-03-27T03:40:19.192Z,1006.513501
2023-03-27T03:45:18.621Z,1006.632352
2023-03-27T03:50:18.827Z,1006.795359
2023-03-27T03:55:18.686Z,1006.994577
2023-03-27T04:00:18.954Z,1007.106799
2023-03-27T04:05:19.124Z,1007.286032
2023-03-27T04:10:18.748Z,1007.442933
2023-03-27T04:15:18.676Z,1007.671905
2023-03-27T04:20:18.818Z,1007.852453
2023-03-27T04:25:19.001Z,1007.948244
2023-03-27T04:30:18.951Z,1008.075768
2023-03-27T04:35:18.684Z,1008.133212
2023-03-27T04:40:18.892Z,1008.231027
2023-03-27T04:45:18.828Z,1008.305970
2023-03-27T04:50:18.790Z,1008.411342
2023-03-27T04:55:18.944Z,1008.539855
2023-03-27T05:00:18.975Z,1008.609146
2023-03-27T05:05:19.130Z,1008.712375
2023-03-27T05:10:21.704Z,1008.741392
2023-03-27T05:15:18.638Z,1008.849847
2023-03-27T05:20:19.666Z,1008.985320
2023-03-27T05:25:18.638Z,1009.087287
2023-03-27T05:30:18.713Z,1009.175738
2023-03-27T05:35:18.856Z,1009.342374
2023-03-27T05:40:18.740Z,1009.421820
2023-03-27T05:45:18.704Z,1009.515133
2023-03-27T05:50:18.804Z,1009.616910
2023-03-27T05:55:18.791Z,1009.714723
2023-03-27T06:00:18.589Z,1009.766971
2023-03-27T06:05:18.671Z,1009.886950
2023-03-27T06:10:18.654Z,1009.977890
2023-03-27T06:15:18.514Z,1010.045512
2023-03-27T06:20:18.608Z,1010.133397
2023-03-27T06:25:18.673Z,1010.279126
2023-03-27T06:30:18.625Z,1010.411168
2023-03-27T06:35:18.587Z,1010.447379
2023-03-27T06:40:18.552Z,1010.431882
2023-03-27T06:45:18.610Z,1010.525020
2023-03-27T06:50:18.787Z,1010.611147
2023-03-27T06:55:18.666Z,1010.629212
2023-03-27T07:00:18.470Z,1010.654310
2023-03-27T07:05:19.255Z,1010.713442
2023-03-27T07:10:18.592Z,1010.711583
2023-03-27T07:15:19.062Z,1010.766773
2023-03-27T07:20:19.600Z,1010.879114
2023-03-27T07:25:20.165Z,1010.904570
2023-03-27T07:30:19.563Z,1011.093795
2023-03-27T07:35:20.018Z,1011.351950
2023-03-27T07:40:21.760Z,1011.476753
2023-03-27T07:45:19.200Z,1011.548388
2023-03-27T07:50:19.559Z,1011.617916
2023-03-27T07:55:19.116Z,1011.607511
2023-03-27T08:00:19.090Z,1011.595156
2023-03-27T08:05:19.273Z,1011.568604
2023-03-27T08:10:19.180Z,1011.551366
2023-03-27T08:15:19.600Z,1011.577833
2023-03-27T08:20:19.617Z,1011.687869
2023-03-27T08:25:19.048Z,1011.776535
2023-03-27T08:30:19.809Z,1011.804123
2023-03-27T08:35:18.981Z,1011.884919
2023-03-27T08:40:19.173Z,1011.852133
2023-03-27T08:45:19.674Z,1011.865262
2023-03-27T08:50:19.051Z,1011.952705
2023-03-27T08:55:16.650Z,1012.035455
2023-03-27T09:00:16.508Z,1012.036000
2023-03-27T09:05:16.859Z,1012.022061
2023-03-27T09:10:17.163Z,1012.081801
2023-03-27T09:15:16.537Z,1012.211423
2023-03-27T09:20:16.980Z,1012.187557
2023-03-27T09:25:16.699Z,1012.120937
2023-03-27T09:30:16.494Z,1012.104467
2023-03-27T09:35:16.693Z,1012.276761
2023-03-27T09:40:16.526Z,1012.386791
2023-03-27T09:45:16.978Z,1012.330610
2023-03-27T09:50:16.611Z,1012.428817
2023-03-27T09:55:16.375Z,1012.474043
2023-03-27T10:00:16.677Z,1012.593085
2023-03-27T10:05:17.581Z,1012.577274
2023-03-27T10:10:17.055Z,1012.578913
2023-03-27T10:15:17.094Z,1012.694944
2023-03-27T10:20:17.208Z,1012.778940
2023-03-27T10:25:16.820Z,1012.723873
2023-03-27T10:30:16.954Z,1012.739570
2023-03-27T10:35:16.705Z,1012.784564
2023-03-27T10:40:16.181Z,1012.756156
2023-03-27T10:45:16.724Z,1012.867536
2023-03-27T10:50:16.218Z,1012.873331
2023-03-27T10:55:16.446Z,1012.827890
2023-03-27T11:00:16.981Z,1012.841629
2023-03-27T11:05:16.860Z,1012.819011
2023-03-27T11:10:17.069Z,1012.831709
2023-03-27T11:15:16.637Z,1012.888170
2023-03-27T11:20:16.896Z,1012.896549
2023-03-27T11:25:16.575Z,1012.932804
2023-03-27T11:30:16.584Z,1012.914985
2023-03-27T11:35:16.456Z,1012.910603
2023-03-27T11:40:17.472Z,1012.952801
2023-03-27T11:45:16.925Z,1012.898341
2023-03-27T11:50:17.076Z,1012.965765
2023-03-27T11:55:16.802Z,1013.184387
2023-03-27T12:00:17.239Z,1013.218733
2023-03-27T12:05:16.712Z,1013.155501
2023-03-27T12:10:16.606Z,1013.154623
2023-03-27T12:15:16.302Z,1013.156110
2023-03-27T12:20:16.935Z,1013.180005
2023-03-27T12:25:16.704Z,1013.248879
2023-03-27T12:30:16.856Z,1013.633769
2023-03-27T12:35:21.460Z,1013.837273
2023-03-27T12:40:16.848Z,1013.855066
2023-03-27T12:45:16.621Z,1013.815383
2023-03-27T12:50:16.929Z,1013.873096
2023-03-27T12:55:16.852Z,1013.798753
2023-03-27T13:00:16.528Z,1013.776261
2023-03-27T13:05:26.948Z,1013.737732
2023-03-27T13:10:16.640Z,1013.698946
2023-03-27T13:15:17.317Z,1013.617573
2023-03-27T13:20:16.861Z,1013.503905
2023-03-27T13:25:16.821Z,1013.546038
2023-03-27T13:30:18.222Z,1013.454600
2023-03-27T13:35:16.625Z,1013.317259
2023-03-27T13:40:16.727Z,1013.387197
2023-03-27T13:45:16.753Z,1013.459882
2023-03-27T13:50:16.418Z,1013.376374
2023-03-27T13:55:16.953Z,1013.448254
2023-03-27T14:00:16.840Z,1013.706987
2023-03-27T14:05:17.584Z,1014.361083
2023-03-27T14:10:16.034Z,1014.752157
2023-03-27T14:15:16.201Z,1014.987430
2023-03-27T14:20:15.974Z,1015.050301
2023-03-27T14:25:16.328Z,1015.068914
2023-03-27T14:30:15.893Z,1015.034163
2023-03-27T14:35:16.208Z,1014.821698
2023-03-27T14:40:16.018Z,1014.784534
2023-03-27T14:45:15.943Z,1014.807056
2023-03-27T14:50:16.151Z,1014.850311
2023-03-27T14:55:16.177Z,1014.881316
2023-03-27T15:00:16.032Z,1014.827021
2023-03-27T15:05:16.714Z,1014.788518
2023-03-27T15:10:16.336Z,1014.768800
2023-03-27T15:15:18.618Z,1014.813385
2023-03-27T15:20:18.563Z,1014.826603
2023-03-27T15:25:18.616Z,1014.864434
2023-03-27T15:30:18.357Z,1014.891501
2023-03-27T15:35:18.425Z,1014.914127
2023-03-27T15:40:19.568Z,1014.913910
2023-03-27T15:45:18.928Z,1014.946509
2023-03-27T15:50:18.796Z,1014.940199
2023-03-27T15:55:18.558Z,1014.983488
2023-03-27T16:00:18.430Z,1015.102700
2023-03-27T16:05:18.456Z,1015.213303
2023-03-27T16:10:18.574Z,1015.283718
2023-03-27T16:15:18.528Z,1015.366048
2023-03-27T16:20:18.565Z,1015.456666
2023-03-27T16:25:18.401Z,1015.609606
2023-03-27T16:30:19.726Z,1015.712467
2023-03-27T16:35:21.200Z,1015.760927
2023-03-27T16:40:18.376Z,1015.724716
2023-03-27T16:45:18.891Z,1015.779661
2023-03-27T16:50:18.378Z,1015.839290
2023-03-27T16:55:18.368Z,1015.936028
2023-03-27T17:00:18.348Z,1015.964492
2023-03-27T17:05:18.531Z,1015.970619
2023-03-27T17:10:18.320Z,1016.084650
2023-03-27T17:15:18.332Z,1016.218735
2023-03-27T17:20:18.300Z,1016.452324
2023-03-27T17:25:18.539Z,1016.561844
2023-03-27T17:30:30.563Z,1016.599682
2023-03-27T17:35:18.635Z,1016.702922
2023-03-27T17:40:18.638Z,1016.777186
2023-03-27T17:45:18.398Z,1016.887455
2023-03-27T17:50:18.359Z,1016.903434
2023-03-27T17:55:19.030Z,1016.959529
2023-03-27T18:00:18.862Z,1016.977616
2023-03-27T18:05:18.906Z,1017.006139
2023-03-27T18:10:18.821Z,1017.035772
2023-03-27T18:15:18.421Z,1017.162924
2023-03-27T18:20:18.614Z,1017.295824
2023-03-27T18:25:18.653Z,1017.249991
2023-03-27T18:30:18.446Z,1017.316533
2023-03-27T18:35:18.300Z,1017.302319
2023-03-27T18:40:18.682Z,1017.395928
2023-03-27T18:45:18.454Z,1017.412177
2023-03-27T18:50:18.462Z,1017.397461
2023-03-27T18:55:18.317Z,1017.448883
2023-03-27T19:00:18.518Z,1017.483726
2023-03-27T19:05:18.426Z,1017.512771
2023-03-27T19:10:18.594Z,1017.546487
2023-03-27T19:15:20.330Z,1017.612807
2023-03-27T19:20:18.401Z,1017.593415
2023-03-27T19:25:18.830Z,1017.582531
2023-03-27T19:30:18.307Z,1017.570311
2023-03-27T19:35:18.321Z,1017.629751
2023-03-27T19:40:18.331Z,1017.626423
2023-03-27T19:45:18.598Z,1017.682818
2023-03-27T19:50:18.576Z,1017.712578
2023-03-27T19:55:18.369Z,1017.737101
2023-03-27T20:00:18.304Z,1017.748491
2023-03-27T20:05:18.663Z,1017.713878
2023-03-27T20:10:18.487Z,1017.694043
2023-03-27T20:15:18.904Z,1017.706691
2023-03-27T20:20:18.635Z,1017.663837
2023-03-27T20:25:18.463Z,1017.639355
2023-03-27T20:30:18.423Z,1017.657748
2023-03-27T20:35:24.203Z,1017.639419
2023-03-27T20:40:18.577Z,1017.708724
2023-03-27T20:45:18.798Z,1017.671333
2023-03-27T20:50:18.902Z,1017.629213
2023-03-27T20:55:32.449Z,1017.651679
2023-03-27T21:00:18.608Z,1017.602617
2023-03-27T21:05:18.660Z,1017.675338
2023-03-27T21:10:18.907Z,1017.665658
2023-03-27T21:15:18.439Z,1017.676648
2023-03-27T21:20:18.339Z,1017.640775
2023-03-27T21:25:18.389Z,1017.534501
2023-03-27T21:30:18.745Z,1017.530445
2023-03-27T21:35:18.766Z,1017.562793
2023-03-27T21:40:18.437Z,1017.580318
2023-03-27T21:45:18.338Z,1017.592147
2023-03-27T21:50:18.446Z,1017.548430
2023-03-27T21:55:18.434Z,1017.516214
2023-03-27T22:00:21.529Z,1017.453547
2023-03-27T22:05:19.055Z,1017.435380
2023-03-27T22:10:18.336Z,1017.397285
2023-03-27T22:15:18.552Z,1017.367795
2023-03-27T22:20:18.438Z,1017.361663
2023-03-27T22:25:18.362Z,1017.384885
2023-03-27T22:30:18.388Z,1017.383764
2023-03-27T22:35:18.321Z,1017.397400
2023-03-27T22:40:18.455Z,1017.438263
2023-03-27T22:45:18.248Z,1017.466337
2023-03-27T22:50:18.341Z,1017.447094
2023-03-27T22:55:18.684Z,1017.469402
2023-03-27T23:00:18.672Z,1017.544420
2023-03-27T23:05:18.844Z,1017.557988
2023-03-27T23:10:18.384Z,1017.559150
2023-03-27T23:15:30.194Z,1017.579254
2023-03-27T23:20:18.449Z,1017.652909
2023-03-27T23:25:18.489Z,1017.653967
2023-03-27T23:30:23.486Z,1017.701531
2023-03-27T23:35:18.186Z,1017.768709
2023-03-27T23:40:18.404Z,1017.797683
2023-03-27T23:45:18.600Z,1017.817662
2023-03-27T23:50:18.265Z,1017.808251
2023-03-27T23:55:18.382Z,1017.774190
